sensor_id;sensor_type;location;lat;lon;timestamp;P1;durP1;ratioP1;P2;durP2;ratioP2
11763;SDS011;5939;56.522;14.950;2022-10-16T00:01:09;12.63;;;10.80;;
11763;SDS011;5939;56.522;14.950;2022-10-16T00:03:41;13.87;;;10.50;;
11763;SDS011;5939;56.522;14.950;2022-10-16T00:06:07;13.57;;;10.67;;
11763;SDS011;5939;56.522;14.950;2022-10-16T00:08:34;14.83;;;11.00;;
11763;SDS011;5939;56.522;14.950;2022-10-16T00:11:22;18.00;;;11.73;;
11763;SDS011;5939;56.522;14.950;2022-10-16T00:13:49;13.93;;;9.80;;
11763;SDS011;5939;56.522;14.950;2022-10-16T00:16:17;12.53;;;10.70;;
11763;SDS011;5939;56.522;14.950;2022-10-16T00:18:43;14.37;;;10.70;;
11763;SDS011;5939;56.522;14.950;2022-10-16T00:21:19;13.43;;;10.50;;
11763;SDS011;5939;56.522;14.950;2022-10-16T00:23:50;12.63;;;9.60;;
11763;SDS011;5939;56.522;14.950;2022-10-16T00:26:17;14.50;;;10.43;;
11763;SDS011;5939;56.522;14.950;2022-10-16T00:28:45;13.23;;;10.03;;
11763;SDS011;5939;56.522;14.950;2022-10-16T00:31:15;15.37;;;10.80;;
11763;SDS011;5939;56.522;14.950;2022-10-16T00:33:42;13.60;;;10.00;;
11763;SDS011;5939;56.522;14.950;2022-10-16T00:36:10;13.87;;;10.30;;
11763;SDS011;5939;56.522;14.950;2022-10-16T00:38:37;14.83;;;9.90;;
11763;SDS011;5939;56.522;14.950;2022-10-16T00:41:04;13.43;;;10.50;;
11763;SDS011;5939;56.522;14.950;2022-10-16T00:43:44;13.87;;;9.83;;
11763;SDS011;5939;56.522;14.950;2022-10-16T00:49:15;13.87;;;9.87;;
11763;SDS011;5939;56.522;14.950;2022-10-16T00:51:47;13.67;;;10.30;;
11763;SDS011;5939;56.522;14.950;2022-10-16T00:54:21;12.87;;;10.13;;
11763;SDS011;5939;56.522;14.950;2022-10-16T00:56:49;13.97;;;9.83;;
11763;SDS011;5939;56.522;14.950;2022-10-16T00:59:19;13.43;;;10.03;;
11763;SDS011;5939;56.522;14.950;2022-10-16T01:01:51;13.50;;;9.87;;
11763;SDS011;5939;56.522;14.950;2022-10-16T01:04:17;11.93;;;9.47;;
11763;SDS011;5939;56.522;14.950;2022-10-16T01:12:09;12.43;;;9.90;;
11763;SDS011;5939;56.522;14.950;2022-10-16T01:14:46;12.37;;;9.97;;
11763;SDS011;5939;56.522;14.950;2022-10-16T01:17:21;14.97;;;9.80;;
11763;SDS011;5939;56.522;14.950;2022-10-16T01:20:05;13.47;;;9.67;;
11763;SDS011;5939;56.522;14.950;2022-10-16T01:28:17;12.60;;;9.57;;
11763;SDS011;5939;56.522;14.950;2022-10-16T01:30:47;11.97;;;9.53;;
11763;SDS011;5939;56.522;14.950;2022-10-16T01:33:21;11.87;;;9.07;;
11763;SDS011;5939;56.522;14.950;2022-10-16T01:35:58;13.30;;;9.80;;
11763;SDS011;5939;56.522;14.950;2022-10-16T01:38:39;11.37;;;9.17;;
11763;SDS011;5939;56.522;14.950;2022-10-16T01:41:08;12.13;;;9.80;;
11763;SDS011;5939;56.522;14.950;2022-10-16T01:43:49;11.20;;;8.90;;
11763;SDS011;5939;56.522;14.950;2022-10-16T01:46:24;11.53;;;9.40;;
11763;SDS011;5939;56.522;14.950;2022-10-16T01:48:50;10.40;;;9.30;;
11763;SDS011;5939;56.522;14.950;2022-10-16T01:51:18;10.67;;;8.87;;
11763;SDS011;5939;56.522;14.950;2022-10-16T01:53:47;11.50;;;9.10;;
11763;SDS011;5939;56.522;14.950;2022-10-16T01:56:16;11.23;;;9.17;;
11763;SDS011;5939;56.522;14.950;2022-10-16T01:58:45;11.27;;;8.97;;
11763;SDS011;5939;56.522;14.950;2022-10-16T02:01:17;10.30;;;8.37;;
11763;SDS011;5939;56.522;14.950;2022-10-16T02:03:45;10.57;;;8.27;;
11763;SDS011;5939;56.522;14.950;2022-10-16T02:06:13;9.57;;;8.53;;
11763;SDS011;5939;56.522;14.950;2022-10-16T02:08:39;9.90;;;8.70;;
11763;SDS011;5939;56.522;14.950;2022-10-16T02:11:09;10.60;;;8.40;;
11763;SDS011;5939;56.522;14.950;2022-10-16T02:16:01;9.83;;;8.70;;
11763;SDS011;5939;56.522;14.950;2022-10-16T02:18:26;11.17;;;8.63;;
11763;SDS011;5939;56.522;14.950;2022-10-16T02:21:02;9.83;;;8.47;;
11763;SDS011;5939;56.522;14.950;2022-10-16T02:29:38;12.93;;;9.47;;
11763;SDS011;5939;56.522;14.950;2022-10-16T02:32:09;10.53;;;8.37;;
11763;SDS011;5939;56.522;14.950;2022-10-16T02:34:36;10.17;;;8.63;;
11763;SDS011;5939;56.522;14.950;2022-10-16T02:37:03;13.27;;;9.40;;
11763;SDS011;5939;56.522;14.950;2022-10-16T02:39:30;10.90;;;8.80;;
11763;SDS011;5939;56.522;14.950;2022-10-16T02:41:56;10.93;;;8.90;;
11763;SDS011;5939;56.522;14.950;2022-10-16T02:44:22;12.50;;;8.93;;
11763;SDS011;5939;56.522;14.950;2022-10-16T02:46:47;10.27;;;8.43;;
11763;SDS011;5939;56.522;14.950;2022-10-16T02:49:14;10.93;;;8.73;;
11763;SDS011;5939;56.522;14.950;2022-10-16T02:51:40;9.67;;;8.27;;
11763;SDS011;5939;56.522;14.950;2022-10-16T02:54:05;9.60;;;8.30;;
11763;SDS011;5939;56.522;14.950;2022-10-16T02:56:31;9.33;;;7.83;;
11763;SDS011;5939;56.522;14.950;2022-10-16T02:58:57;10.67;;;8.33;;
11763;SDS011;5939;56.522;14.950;2022-10-16T03:01:23;10.13;;;8.00;;
11763;SDS011;5939;56.522;14.950;2022-10-16T03:03:49;11.07;;;8.43;;
11763;SDS011;5939;56.522;14.950;2022-10-16T03:06:14;8.10;;;7.30;;
11763;SDS011;5939;56.522;14.950;2022-10-16T03:08:40;8.70;;;7.80;;
11763;SDS011;5939;56.522;14.950;2022-10-16T03:11:06;9.50;;;7.80;;
11763;SDS011;5939;56.522;14.950;2022-10-16T03:13:31;9.57;;;7.83;;
11763;SDS011;5939;56.522;14.950;2022-10-16T03:15:57;11.10;;;8.00;;
11763;SDS011;5939;56.522;14.950;2022-10-16T03:18:22;8.97;;;7.73;;
11763;SDS011;5939;56.522;14.950;2022-10-16T03:20:48;10.20;;;8.10;;
11763;SDS011;5939;56.522;14.950;2022-10-16T03:23:14;10.93;;;7.77;;
11763;SDS011;5939;56.522;14.950;2022-10-16T03:25:39;9.23;;;7.67;;
11763;SDS011;5939;56.522;14.950;2022-10-16T03:28:05;8.77;;;7.07;;
11763;SDS011;5939;56.522;14.950;2022-10-16T03:30:31;10.37;;;7.70;;
11763;SDS011;5939;56.522;14.950;2022-10-16T03:32:56;10.33;;;7.80;;
11763;SDS011;5939;56.522;14.950;2022-10-16T03:35:23;7.73;;;6.93;;
11763;SDS011;5939;56.522;14.950;2022-10-16T03:37:49;9.70;;;6.67;;
11763;SDS011;5939;56.522;14.950;2022-10-16T03:40:15;8.27;;;6.70;;
11763;SDS011;5939;56.522;14.950;2022-10-16T03:42:42;8.73;;;6.57;;
11763;SDS011;5939;56.522;14.950;2022-10-16T03:45:08;7.43;;;6.33;;
11763;SDS011;5939;56.522;14.950;2022-10-16T03:47:34;8.63;;;7.50;;
11763;SDS011;5939;56.522;14.950;2022-10-16T03:50:00;8.83;;;7.33;;
11763;SDS011;5939;56.522;14.950;2022-10-16T03:52:26;7.50;;;6.30;;
11763;SDS011;5939;56.522;14.950;2022-10-16T03:54:52;7.03;;;6.23;;
11763;SDS011;5939;56.522;14.950;2022-10-16T03:57:17;6.90;;;6.20;;
11763;SDS011;5939;56.522;14.950;2022-10-16T03:59:43;7.47;;;6.30;;
11763;SDS011;5939;56.522;14.950;2022-10-16T04:02:09;7.27;;;6.27;;
11763;SDS011;5939;56.522;14.950;2022-10-16T04:04:35;7.80;;;6.70;;
11763;SDS011;5939;56.522;14.950;2022-10-16T04:07:00;7.43;;;6.30;;
11763;SDS011;5939;56.522;14.950;2022-10-16T04:09:26;7.13;;;6.03;;
11763;SDS011;5939;56.522;14.950;2022-10-16T04:11:52;6.70;;;5.33;;
11763;SDS011;5939;56.522;14.950;2022-10-16T04:14:17;7.37;;;5.73;;
11763;SDS011;5939;56.522;14.950;2022-10-16T04:16:43;7.40;;;5.33;;
11763;SDS011;5939;56.522;14.950;2022-10-16T04:19:09;7.20;;;5.93;;
11763;SDS011;5939;56.522;14.950;2022-10-16T04:21:35;6.50;;;5.40;;
11763;SDS011;5939;56.522;14.950;2022-10-16T04:24:01;6.10;;;5.13;;
11763;SDS011;5939;56.522;14.950;2022-10-16T04:26:27;6.47;;;5.20;;
11763;SDS011;5939;56.522;14.950;2022-10-16T04:28:53;6.77;;;5.37;;
11763;SDS011;5939;56.522;14.950;2022-10-16T04:31:19;5.73;;;5.13;;
11763;SDS011;5939;56.522;14.950;2022-10-16T04:33:45;5.80;;;4.77;;
11763;SDS011;5939;56.522;14.950;2022-10-16T04:36:10;5.67;;;5.10;;
11763;SDS011;5939;56.522;14.950;2022-10-16T04:38:36;8.10;;;5.00;;
11763;SDS011;5939;56.522;14.950;2022-10-16T04:41:02;5.63;;;4.73;;
11763;SDS011;5939;56.522;14.950;2022-10-16T04:43:28;6.07;;;4.70;;
11763;SDS011;5939;56.522;14.950;2022-10-16T04:45:54;5.23;;;4.43;;
11763;SDS011;5939;56.522;14.950;2022-10-16T04:48:21;5.63;;;5.03;;
11763;SDS011;5939;56.522;14.950;2022-10-16T04:50:47;6.63;;;5.07;;
11763;SDS011;5939;56.522;14.950;2022-10-16T04:53:13;5.20;;;4.60;;
11763;SDS011;5939;56.522;14.950;2022-10-16T04:55:39;6.17;;;5.10;;
11763;SDS011;5939;56.522;14.950;2022-10-16T04:58:06;6.23;;;4.80;;
11763;SDS011;5939;56.522;14.950;2022-10-16T05:00:32;5.80;;;4.70;;
11763;SDS011;5939;56.522;14.950;2022-10-16T05:02:58;5.00;;;4.43;;
11763;SDS011;5939;56.522;14.950;2022-10-16T05:05:25;8.70;;;4.97;;
11763;SDS011;5939;56.522;14.950;2022-10-16T05:07:51;5.83;;;4.50;;
11763;SDS011;5939;56.522;14.950;2022-10-16T05:10:17;5.07;;;4.20;;
11763;SDS011;5939;56.522;14.950;2022-10-16T05:12:43;4.40;;;3.97;;
11763;SDS011;5939;56.522;14.950;2022-10-16T05:15:09;6.07;;;4.20;;
11763;SDS011;5939;56.522;14.950;2022-10-16T05:17:35;5.73;;;4.20;;
11763;SDS011;5939;56.522;14.950;2022-10-16T05:20:00;5.97;;;4.67;;
11763;SDS011;5939;56.522;14.950;2022-10-16T05:22:26;4.87;;;4.33;;
11763;SDS011;5939;56.522;14.950;2022-10-16T05:24:52;5.77;;;4.27;;
11763;SDS011;5939;56.522;14.950;2022-10-16T05:27:17;5.37;;;4.07;;
11763;SDS011;5939;56.522;14.950;2022-10-16T05:29:46;4.40;;;4.00;;
11763;SDS011;5939;56.522;14.950;2022-10-16T05:32:13;4.50;;;4.10;;
11763;SDS011;5939;56.522;14.950;2022-10-16T05:34:40;4.87;;;3.80;;
11763;SDS011;5939;56.522;14.950;2022-10-16T05:37:05;4.60;;;4.00;;
11763;SDS011;5939;56.522;14.950;2022-10-16T05:39:31;4.20;;;3.80;;
11763;SDS011;5939;56.522;14.950;2022-10-16T05:41:57;4.47;;;4.07;;
11763;SDS011;5939;56.522;14.950;2022-10-16T05:44:22;7.90;;;4.23;;
11763;SDS011;5939;56.522;14.950;2022-10-16T05:46:48;4.40;;;4.00;;
11763;SDS011;5939;56.522;14.950;2022-10-16T05:49:14;4.67;;;3.70;;
11763;SDS011;5939;56.522;14.950;2022-10-16T05:51:39;4.47;;;4.07;;
11763;SDS011;5939;56.522;14.950;2022-10-16T05:54:06;4.27;;;3.87;;
11763;SDS011;5939;56.522;14.950;2022-10-16T05:56:32;5.30;;;3.90;;
11763;SDS011;5939;56.522;14.950;2022-10-16T05:58:57;4.47;;;3.87;;
11763;SDS011;5939;56.522;14.950;2022-10-16T06:01:23;4.13;;;3.67;;
11763;SDS011;5939;56.522;14.950;2022-10-16T06:03:52;4.80;;;4.10;;
11763;SDS011;5939;56.522;14.950;2022-10-16T06:06:21;5.23;;;4.30;;
11763;SDS011;5939;56.522;14.950;2022-10-16T06:08:50;4.80;;;3.73;;
11763;SDS011;5939;56.522;14.950;2022-10-16T06:11:18;4.63;;;4.13;;
11763;SDS011;5939;56.522;14.950;2022-10-16T06:13:55;4.20;;;3.70;;
11763;SDS011;5939;56.522;14.950;2022-10-16T06:16:23;4.53;;;3.87;;
11763;SDS011;5939;56.522;14.950;2022-10-16T06:18:50;3.97;;;3.57;;
11763;SDS011;5939;56.522;14.950;2022-10-16T06:21:19;4.90;;;3.63;;
11763;SDS011;5939;56.522;14.950;2022-10-16T06:23:46;6.47;;;4.37;;
11763;SDS011;5939;56.522;14.950;2022-10-16T06:26:13;5.20;;;4.13;;
11763;SDS011;5939;56.522;14.950;2022-10-16T06:28:42;5.10;;;4.10;;
11763;SDS011;5939;56.522;14.950;2022-10-16T06:31:08;5.50;;;3.90;;
11763;SDS011;5939;56.522;14.950;2022-10-16T06:33:36;5.53;;;4.17;;
11763;SDS011;5939;56.522;14.950;2022-10-16T06:36:04;4.20;;;3.80;;
11763;SDS011;5939;56.522;14.950;2022-10-16T06:38:33;9.07;;;4.50;;
11763;SDS011;5939;56.522;14.950;2022-10-16T06:40:59;6.20;;;4.47;;
11763;SDS011;5939;56.522;14.950;2022-10-16T06:43:25;5.73;;;4.30;;
11763;SDS011;5939;56.522;14.950;2022-10-16T06:45:52;5.20;;;4.27;;
11763;SDS011;5939;56.522;14.950;2022-10-16T06:48:18;5.57;;;4.17;;
11763;SDS011;5939;56.522;14.950;2022-10-16T06:50:54;6.10;;;4.33;;
11763;SDS011;5939;56.522;14.950;2022-10-16T06:53:28;5.43;;;4.40;;
11763;SDS011;5939;56.522;14.950;2022-10-16T06:55:56;7.57;;;4.77;;
11763;SDS011;5939;56.522;14.950;2022-10-16T06:58:22;6.63;;;4.43;;
11763;SDS011;5939;56.522;14.950;2022-10-16T07:00:48;7.33;;;5.23;;
11763;SDS011;5939;56.522;14.950;2022-10-16T07:03:19;6.00;;;4.83;;
11763;SDS011;5939;56.522;14.950;2022-10-16T07:05:45;6.33;;;4.57;;
11763;SDS011;5939;56.522;14.950;2022-10-16T07:08:10;7.57;;;5.30;;
11763;SDS011;5939;56.522;14.950;2022-10-16T07:10:36;6.97;;;5.27;;
11763;SDS011;5939;56.522;14.950;2022-10-16T07:13:02;7.20;;;5.07;;
11763;SDS011;5939;56.522;14.950;2022-10-16T07:15:27;7.60;;;5.17;;
11763;SDS011;5939;56.522;14.950;2022-10-16T07:17:53;6.07;;;5.13;;
11763;SDS011;5939;56.522;14.950;2022-10-16T07:20:19;6.33;;;5.27;;
11763;SDS011;5939;56.522;14.950;2022-10-16T07:22:45;5.47;;;4.87;;
11763;SDS011;5939;56.522;14.950;2022-10-16T07:25:11;7.27;;;5.60;;
11763;SDS011;5939;56.522;14.950;2022-10-16T07:27:36;8.27;;;5.23;;
11763;SDS011;5939;56.522;14.950;2022-10-16T07:30:03;8.23;;;4.53;;
11763;SDS011;5939;56.522;14.950;2022-10-16T07:32:29;6.00;;;4.20;;
11763;SDS011;5939;56.522;14.950;2022-10-16T07:34:55;6.47;;;4.70;;
11763;SDS011;5939;56.522;14.950;2022-10-16T07:37:21;7.97;;;5.10;;
11763;SDS011;5939;56.522;14.950;2022-10-16T07:39:47;7.50;;;5.20;;
11763;SDS011;5939;56.522;14.950;2022-10-16T07:42:13;7.27;;;4.90;;
11763;SDS011;5939;56.522;14.950;2022-10-16T07:44:38;7.73;;;4.83;;
11763;SDS011;5939;56.522;14.950;2022-10-16T07:47:05;7.47;;;5.30;;
11763;SDS011;5939;56.522;14.950;2022-10-16T07:49:30;6.67;;;5.03;;
11763;SDS011;5939;56.522;14.950;2022-10-16T07:51:56;5.27;;;4.77;;
11763;SDS011;5939;56.522;14.950;2022-10-16T07:54:22;7.50;;;4.80;;
11763;SDS011;5939;56.522;14.950;2022-10-16T07:56:47;5.83;;;4.67;;
11763;SDS011;5939;56.522;14.950;2022-10-16T07:59:13;6.87;;;4.70;;
11763;SDS011;5939;56.522;14.950;2022-10-16T08:01:39;8.03;;;4.73;;
11763;SDS011;5939;56.522;14.950;2022-10-16T08:04:07;8.03;;;4.73;;
11763;SDS011;5939;56.522;14.950;2022-10-16T08:06:34;4.60;;;4.10;;
11763;SDS011;5939;56.522;14.950;2022-10-16T08:09:05;5.33;;;3.90;;
11763;SDS011;5939;56.522;14.950;2022-10-16T08:11:32;5.53;;;4.13;;
11763;SDS011;5939;56.522;14.950;2022-10-16T08:13:57;6.57;;;4.37;;
11763;SDS011;5939;56.522;14.950;2022-10-16T08:16:23;5.00;;;3.73;;
11763;SDS011;5939;56.522;14.950;2022-10-16T08:18:49;7.20;;;4.00;;
11763;SDS011;5939;56.522;14.950;2022-10-16T08:21:16;5.67;;;3.90;;
11763;SDS011;5939;56.522;14.950;2022-10-16T08:23:44;7.27;;;4.13;;
11763;SDS011;5939;56.522;14.950;2022-10-16T08:26:10;4.00;;;3.57;;
11763;SDS011;5939;56.522;14.950;2022-10-16T08:28:37;5.50;;;3.40;;
11763;SDS011;5939;56.522;14.950;2022-10-16T08:31:10;5.10;;;3.97;;
11763;SDS011;5939;56.522;14.950;2022-10-16T08:33:38;6.17;;;3.50;;
11763;SDS011;5939;56.522;14.950;2022-10-16T08:36:05;4.63;;;3.57;;
11763;SDS011;5939;56.522;14.950;2022-10-16T08:38:31;6.90;;;3.60;;
11763;SDS011;5939;56.522;14.950;2022-10-16T08:49:29;5.60;;;3.40;;
11763;SDS011;5939;56.522;14.950;2022-10-16T08:51:56;4.60;;;3.07;;
11763;SDS011;5939;56.522;14.950;2022-10-16T08:56:56;4.73;;;3.07;;
11763;SDS011;5939;56.522;14.950;2022-10-16T08:59:26;5.10;;;3.37;;
11763;SDS011;5939;56.522;14.950;2022-10-16T09:01:52;5.13;;;3.43;;
11763;SDS011;5939;56.522;14.950;2022-10-16T09:13:01;4.97;;;2.70;;
11763;SDS011;5939;56.522;14.950;2022-10-16T09:16:10;3.63;;;2.77;;
11763;SDS011;5939;56.522;14.950;2022-10-16T09:21:28;4.70;;;2.90;;
11763;SDS011;5939;56.522;14.950;2022-10-16T09:24:07;3.97;;;2.73;;
11763;SDS011;5939;56.522;14.950;2022-10-16T09:26:39;5.30;;;2.73;;
11763;SDS011;5939;56.522;14.950;2022-10-16T09:29:05;4.43;;;2.57;;
11763;SDS011;5939;56.522;14.950;2022-10-16T09:31:31;5.33;;;2.87;;
11763;SDS011;5939;56.522;14.950;2022-10-16T09:34:02;4.33;;;2.70;;
11763;SDS011;5939;56.522;14.950;2022-10-16T09:36:31;5.87;;;2.57;;
11763;SDS011;5939;56.522;14.950;2022-10-16T09:39:05;4.30;;;2.50;;
11763;SDS011;5939;56.522;14.950;2022-10-16T09:41:36;4.93;;;2.63;;
11763;SDS011;5939;56.522;14.950;2022-10-16T09:44:15;4.73;;;2.83;;
11763;SDS011;5939;56.522;14.950;2022-10-16T09:47:04;3.57;;;2.33;;
11763;SDS011;5939;56.522;14.950;2022-10-16T09:49:36;3.77;;;2.73;;
11763;SDS011;5939;56.522;14.950;2022-10-16T09:52:03;4.40;;;2.60;;
11763;SDS011;5939;56.522;14.950;2022-10-16T09:54:48;8.43;;;2.80;;
11763;SDS011;5939;56.522;14.950;2022-10-16T09:57:22;3.60;;;2.40;;
11763;SDS011;5939;56.522;14.950;2022-10-16T09:59:49;4.80;;;2.70;;
11763;SDS011;5939;56.522;14.950;2022-10-16T10:02:18;8.60;;;2.60;;
11763;SDS011;5939;56.522;14.950;2022-10-16T10:04:56;5.57;;;2.27;;
11763;SDS011;5939;56.522;14.950;2022-10-16T10:07:26;4.73;;;2.30;;
11763;SDS011;5939;56.522;14.950;2022-10-16T10:09:58;4.53;;;2.50;;
11763;SDS011;5939;56.522;14.950;2022-10-16T10:12:24;4.10;;;2.60;;
11763;SDS011;5939;56.522;14.950;2022-10-16T10:14:55;4.63;;;2.67;;
11763;SDS011;5939;56.522;14.950;2022-10-16T10:17:23;3.37;;;2.20;;
11763;SDS011;5939;56.522;14.950;2022-10-16T10:24:57;3.03;;;2.30;;
11763;SDS011;5939;56.522;14.950;2022-10-16T10:30:24;4.80;;;2.10;;
11763;SDS011;5939;56.522;14.950;2022-10-16T10:35:30;3.30;;;2.10;;
11763;SDS011;5939;56.522;14.950;2022-10-16T10:40:51;5.03;;;2.20;;
11763;SDS011;5939;56.522;14.950;2022-10-16T10:46:34;5.63;;;2.37;;
11763;SDS011;5939;56.522;14.950;2022-10-16T10:49:13;4.03;;;2.10;;
11763;SDS011;5939;56.522;14.950;2022-10-16T10:54:49;2.70;;;2.00;;
11763;SDS011;5939;56.522;14.950;2022-10-16T11:05:33;3.20;;;1.80;;
11763;SDS011;5939;56.522;14.950;2022-10-16T11:10:40;4.93;;;1.97;;
11763;SDS011;5939;56.522;14.950;2022-10-16T11:13:16;2.77;;;2.23;;
11763;SDS011;5939;56.522;14.950;2022-10-16T11:16:02;5.33;;;2.20;;
11763;SDS011;5939;56.522;14.950;2022-10-16T11:21:21;2.53;;;2.13;;
11763;SDS011;5939;56.522;14.950;2022-10-16T11:23:53;2.80;;;1.90;;
11763;SDS011;5939;56.522;14.950;2022-10-16T11:26:30;7.60;;;2.37;;
11763;SDS011;5939;56.522;14.950;2022-10-16T11:28:59;3.20;;;1.80;;
11763;SDS011;5939;56.522;14.950;2022-10-16T11:31:40;2.83;;;1.70;;
11763;SDS011;5939;56.522;14.950;2022-10-16T11:34:28;4.10;;;1.70;;
11763;SDS011;5939;56.522;14.950;2022-10-16T11:37:17;2.20;;;1.70;;
11763;SDS011;5939;56.522;14.950;2022-10-16T11:39:45;4.57;;;2.00;;
11763;SDS011;5939;56.522;14.950;2022-10-16T11:42:30;4.80;;;1.80;;
11763;SDS011;5939;56.522;14.950;2022-10-16T11:48:08;6.90;;;2.03;;
11763;SDS011;5939;56.522;14.950;2022-10-16T11:50:56;4.00;;;1.90;;
11763;SDS011;5939;56.522;14.950;2022-10-16T11:53:43;4.77;;;2.10;;
11763;SDS011;5939;56.522;14.950;2022-10-16T11:56:20;5.23;;;1.93;;
11763;SDS011;5939;56.522;14.950;2022-10-16T11:58:54;3.27;;;2.00;;
11763;SDS011;5939;56.522;14.950;2022-10-16T12:01:44;5.80;;;1.83;;
11763;SDS011;5939;56.522;14.950;2022-10-16T12:04:16;2.57;;;1.53;;
11763;SDS011;5939;56.522;14.950;2022-10-16T12:07:04;3.90;;;1.80;;
11763;SDS011;5939;56.522;14.950;2022-10-16T12:09:34;2.73;;;1.80;;
11763;SDS011;5939;56.522;14.950;2022-10-16T12:12:03;4.57;;;1.80;;
11763;SDS011;5939;56.522;14.950;2022-10-16T12:19:57;3.70;;;1.60;;
11763;SDS011;5939;56.522;14.950;2022-10-16T12:22:24;3.63;;;1.93;;
11763;SDS011;5939;56.522;14.950;2022-10-16T12:24:54;4.10;;;1.90;;
11763;SDS011;5939;56.522;14.950;2022-10-16T12:27:22;4.37;;;2.23;;
11763;SDS011;5939;56.522;14.950;2022-10-16T12:29:53;3.13;;;1.80;;
11763;SDS011;5939;56.522;14.950;2022-10-16T12:32:27;4.00;;;1.63;;
11763;SDS011;5939;56.522;14.950;2022-10-16T12:34:58;3.70;;;1.37;;
11763;SDS011;5939;56.522;14.950;2022-10-16T12:37:35;3.07;;;1.50;;
11763;SDS011;5939;56.522;14.950;2022-10-16T12:40:23;3.57;;;1.43;;
11763;SDS011;5939;56.522;14.950;2022-10-16T12:42:49;3.77;;;1.57;;
11763;SDS011;5939;56.522;14.950;2022-10-16T12:45:26;4.47;;;1.40;;
11763;SDS011;5939;56.522;14.950;2022-10-16T12:47:56;4.47;;;1.30;;
11763;SDS011;5939;56.522;14.950;2022-10-16T12:50:25;4.20;;;1.67;;
11763;SDS011;5939;56.522;14.950;2022-10-16T12:53:02;1.57;;;1.40;;
11763;SDS011;5939;56.522;14.950;2022-10-16T13:06:43;3.10;;;1.40;;
11763;SDS011;5939;56.522;14.950;2022-10-16T13:09:23;4.53;;;1.50;;
11763;SDS011;5939;56.522;14.950;2022-10-16T13:23:23;1.60;;;1.13;;
11763;SDS011;5939;56.522;14.950;2022-10-16T13:28:49;1.97;;;1.40;;
11763;SDS011;5939;56.522;14.950;2022-10-16T13:31:17;3.67;;;1.43;;
11763;SDS011;5939;56.522;14.950;2022-10-16T13:33:46;3.20;;;1.40;;
11763;SDS011;5939;56.522;14.950;2022-10-16T13:36:20;2.60;;;1.17;;
11763;SDS011;5939;56.522;14.950;2022-10-16T13:41:34;1.40;;;1.30;;
11763;SDS011;5939;56.522;14.950;2022-10-16T13:43:59;3.37;;;1.57;;
11763;SDS011;5939;56.522;14.950;2022-10-16T13:46:25;2.30;;;1.20;;
11763;SDS011;5939;56.522;14.950;2022-10-16T13:48:58;2.20;;;1.30;;
11763;SDS011;5939;56.522;14.950;2022-10-16T13:51:29;3.47;;;1.47;;
11763;SDS011;5939;56.522;14.950;2022-10-16T13:53:56;3.30;;;1.20;;
11763;SDS011;5939;56.522;14.950;2022-10-16T13:56:24;2.13;;;1.20;;
11763;SDS011;5939;56.522;14.950;2022-10-16T13:59:03;3.93;;;1.30;;
11763;SDS011;5939;56.522;14.950;2022-10-16T14:01:34;2.13;;;1.20;;
11763;SDS011;5939;56.522;14.950;2022-10-16T14:04:12;2.27;;;1.33;;
11763;SDS011;5939;56.522;14.950;2022-10-16T14:06:40;3.57;;;1.40;;
11763;SDS011;5939;56.522;14.950;2022-10-16T14:09:08;2.70;;;1.40;;
11763;SDS011;5939;56.522;14.950;2022-10-16T14:11:43;2.80;;;1.20;;
11763;SDS011;5939;56.522;14.950;2022-10-16T14:14:13;2.27;;;1.43;;
11763;SDS011;5939;56.522;14.950;2022-10-16T14:16:40;2.97;;;1.17;;
11763;SDS011;5939;56.522;14.950;2022-10-16T14:19:22;3.40;;;1.30;;
11763;SDS011;5939;56.522;14.950;2022-10-16T14:21:52;3.13;;;1.10;;
11763;SDS011;5939;56.522;14.950;2022-10-16T14:24:36;1.70;;;1.10;;
11763;SDS011;5939;56.522;14.950;2022-10-16T14:27:20;2.20;;;1.43;;
11763;SDS011;5939;56.522;14.950;2022-10-16T14:30:12;5.40;;;1.27;;
11763;SDS011;5939;56.522;14.950;2022-10-16T14:33:44;2.70;;;1.20;;
11763;SDS011;5939;56.522;14.950;2022-10-16T14:38:27;2.60;;;1.13;;
11763;SDS011;5939;56.522;14.950;2022-10-16T14:40:54;3.43;;;1.07;;
11763;SDS011;5939;56.522;14.950;2022-10-16T14:43:32;1.53;;;0.90;;
11763;SDS011;5939;56.522;14.950;2022-10-16T14:46:02;3.37;;;1.17;;
11763;SDS011;5939;56.522;14.950;2022-10-16T14:48:31;2.80;;;1.17;;
11763;SDS011;5939;56.522;14.950;2022-10-16T14:50:57;1.83;;;1.20;;
11763;SDS011;5939;56.522;14.950;2022-10-16T14:53:23;3.10;;;1.33;;
11763;SDS011;5939;56.522;14.950;2022-10-16T14:55:49;2.60;;;1.37;;
11763;SDS011;5939;56.522;14.950;2022-10-16T14:58:16;1.90;;;1.10;;
11763;SDS011;5939;56.522;14.950;2022-10-16T15:00:44;3.40;;;1.10;;
11763;SDS011;5939;56.522;14.950;2022-10-16T15:03:10;1.60;;;0.90;;
11763;SDS011;5939;56.522;14.950;2022-10-16T15:05:36;2.57;;;1.23;;
11763;SDS011;5939;56.522;14.950;2022-10-16T15:08:02;2.00;;;1.20;;
11763;SDS011;5939;56.522;14.950;2022-10-16T15:10:29;1.83;;;0.97;;
11763;SDS011;5939;56.522;14.950;2022-10-16T15:12:57;1.67;;;0.80;;
11763;SDS011;5939;56.522;14.950;2022-10-16T15:17:56;1.37;;;0.90;;
11763;SDS011;5939;56.522;14.950;2022-10-16T15:20:26;1.07;;;0.80;;
11763;SDS011;5939;56.522;14.950;2022-10-16T15:22:52;2.40;;;0.90;;
11763;SDS011;5939;56.522;14.950;2022-10-16T15:25:29;3.57;;;1.13;;
11763;SDS011;5939;56.522;14.950;2022-10-16T15:27:55;1.40;;;0.80;;
11763;SDS011;5939;56.522;14.950;2022-10-16T15:30:21;1.70;;;1.10;;
11763;SDS011;5939;56.522;14.950;2022-10-16T15:32:47;2.00;;;1.20;;
11763;SDS011;5939;56.522;14.950;2022-10-16T15:35:13;2.60;;;0.80;;
11763;SDS011;5939;56.522;14.950;2022-10-16T15:37:39;1.20;;;0.77;;
11763;SDS011;5939;56.522;14.950;2022-10-16T15:40:05;1.97;;;0.80;;
11763;SDS011;5939;56.522;14.950;2022-10-16T15:42:30;1.83;;;0.90;;
11763;SDS011;5939;56.522;14.950;2022-10-16T15:44:56;1.83;;;1.00;;
11763;SDS011;5939;56.522;14.950;2022-10-16T15:47:22;1.97;;;0.90;;
11763;SDS011;5939;56.522;14.950;2022-10-16T15:49:47;2.10;;;1.07;;
11763;SDS011;5939;56.522;14.950;2022-10-16T15:52:13;2.83;;;0.80;;
11763;SDS011;5939;56.522;14.950;2022-10-16T15:54:39;2.27;;;1.20;;
11763;SDS011;5939;56.522;14.950;2022-10-16T15:57:04;2.03;;;0.80;;
11763;SDS011;5939;56.522;14.950;2022-10-16T15:59:30;2.07;;;0.93;;
11763;SDS011;5939;56.522;14.950;2022-10-16T16:01:55;4.03;;;0.80;;
11763;SDS011;5939;56.522;14.950;2022-10-16T16:04:21;3.03;;;0.90;;
11763;SDS011;5939;56.522;14.950;2022-10-16T16:06:47;1.40;;;0.80;;
11763;SDS011;5939;56.522;14.950;2022-10-16T16:09:13;2.33;;;0.90;;
11763;SDS011;5939;56.522;14.950;2022-10-16T16:11:39;1.47;;;0.90;;
11763;SDS011;5939;56.522;14.950;2022-10-16T16:14:05;1.47;;;0.70;;
11763;SDS011;5939;56.522;14.950;2022-10-16T16:16:31;1.70;;;0.80;;
11763;SDS011;5939;56.522;14.950;2022-10-16T16:19:02;1.47;;;0.90;;
11763;SDS011;5939;56.522;14.950;2022-10-16T16:21:29;2.40;;;1.10;;
11763;SDS011;5939;56.522;14.950;2022-10-16T16:23:55;2.23;;;1.13;;
11763;SDS011;5939;56.522;14.950;2022-10-16T16:26:24;1.00;;;0.90;;
11763;SDS011;5939;56.522;14.950;2022-10-16T16:28:59;2.53;;;0.90;;
11763;SDS011;5939;56.522;14.950;2022-10-16T16:31:25;2.17;;;0.80;;
11763;SDS011;5939;56.522;14.950;2022-10-16T16:33:52;2.03;;;0.90;;
11763;SDS011;5939;56.522;14.950;2022-10-16T16:36:18;1.77;;;0.97;;
11763;SDS011;5939;56.522;14.950;2022-10-16T16:38:44;5.50;;;1.00;;
11763;SDS011;5939;56.522;14.950;2022-10-16T16:41:15;3.23;;;1.30;;
11763;SDS011;5939;56.522;14.950;2022-10-16T16:43:42;2.30;;;0.70;;
11763;SDS011;5939;56.522;14.950;2022-10-16T16:46:08;3.63;;;0.93;;
11763;SDS011;5939;56.522;14.950;2022-10-16T16:48:34;2.60;;;1.00;;
11763;SDS011;5939;56.522;14.950;2022-10-16T16:51:10;3.17;;;1.10;;
11763;SDS011;5939;56.522;14.950;2022-10-16T16:53:41;4.70;;;1.00;;
11763;SDS011;5939;56.522;14.950;2022-10-16T16:56:08;2.70;;;1.10;;
11763;SDS011;5939;56.522;14.950;2022-10-16T16:58:33;3.67;;;1.10;;